Weather observations for the past three days for
Paris - Henry County Airport
Metric (Imperial)
Date Time (cdt) Wind (kph) Vis. (km) Weather Sky Cond. Temperature (ºC) Relative Humidity Wind Chill (°C) Heat Index (°C) Pressure Precipitation (cm)
Air Dwpt 6 hour altimeter (cm) sea level (mb) 1 hr 3 hr 6 hr
Max. Min.
01 21:35 Calm 16.09 Fair CLR 25 25 100% 25 76.3 0.0
01 21:15 Calm 16.09 Fair CLR 25 25 100% 25 76.3 0.0
01 20:55 Calm 16.09 Fair CLR 26 26 100% 28 76.3 0.0
01 20:35 Calm 16.09 Fair CLR 26 25 94% 28 76.3 0.0
01 20:15 Calm 16.09 Fair CLR 26 25 94% 28 76.28 0.0
01 19:55 Calm 16.09 Fair CLR 27 25 89% 31 76.28 0.0
01 19:35 SE 7 16.09 Fair CLR 29 25 79% 35 76.28 0.0
01 19:15 SE 7 16.09 Fair CLR 30 25 75% 36 76.28 0.0
01 18:55 Calm 16.09 Fair CLR 32 24 63% 38 76.28 0.0
01 18:35 Calm 16.09 Fair CLR 32 24 63% 38 76.28 0.0
01 18:15 SE 6 16.09 Fair CLR 33 23 56% 38 76.28 0.0
01 17:55 SE 7 16.09 Fair CLR 33 23 56% 38 76.28 0.0
01 17:35 SE 7 16.09 Fair CLR 34 23 53% 39 76.28 0.0
01 17:15 SE 11 16.09 Fair CLR 34 23 53% 39 76.28 0.0
01 16:55 Vrbl 6 16.09 Fair CLR 34 22 50% 38 76.28 0.0
01 16:35 Vrbl 7 16.09 Fair CLR 35 22 47% 39 76.28 0.0
01 16:15 E 7 16.09 Fair CLR 35 22 47% 39 76.28 0.0
01 15:55 E 7 16.09 Fair CLR 35 23 50% 41 76.3 0.0
01 15:35 SE 9 16.09 A Few Clouds FEW055 FEW090 35 22 47% 39 76.3 0.0
01 15:15 Calm 16.09 Partly Cloudy SCT055 SCT090 35 22 47% 39 76.3 0.0
01 14:55 NE 7 16.09 Overcast OVC055 35 22 47% 39 76.33 0.0
01 14:35 Vrbl 6 16.09 Mostly Cloudy BKN055 35 22 47% 39 76.33 0.0
01 14:15 Calm 16.09 A Few Clouds FEW060 35 22 47% 39 76.35 0.0
01 13:55 SW 6 16.09 Fair CLR 35 22 47% 39 76.38 0.0
01 13:35 Vrbl 6 16.09 Fair CLR 35 22 47% 39 76.38 0.0
01 13:15 SW 7 16.09 Fair CLR 34 22 50% 38 76.4 0.0
01 12:55 Calm 16.09 Partly Cloudy SCT049 35 22 47% 39 76.43 0.0
01 12:35 Vrbl 6 16.09 Partly Cloudy SCT050 34 23 53% 39 76.43 0.0
01 12:15 Calm 16.09 Fair CLR 34 23 53% 39 76.45 0.0
01 11:55 W 9 16.09 Fair CLR 33 23 56% 38 76.48 0.0
01 11:35 Vrbl 6 16.09 Fair CLR 33 23 56% 38 76.48 0.0
01 11:15 Vrbl 11 16.09 Fair CLR 33 24 59% 39 76.48 0.0
01 10:55 SW 9 16.09 Fair CLR 32 24 63% 38 76.5 0.0
01 10:35 SW 11 16.09 Fair CLR 32 25 67% 39 76.5 0.0
01 10:15 SW 11 16.09 Fair CLR 31 24 66% 37 76.5 0.0
01 09:55 SW 11 16.09 Fair CLR 31 25 70% 38 76.5 0.0
01 09:35 SW 9 16.09 Fair CLR 30 25 75% 36 76.5 0.0
01 09:15 SW 7 16.09 Fair CLR 29 25 79% 35 76.5 0.0
01 08:55 SW 7 16.09 Fair CLR 29 25 79% 35 76.5 0.0
01 08:35 SW 9 16.09 Fair CLR 28 25 84% 33 76.5 0.0
01 08:15 SW 9 16.09 Fair CLR 28 24 79% 32 76.5 0.0
01 07:55 Calm 16.09 Fair CLR 27 24 84% 30 76.48 0.0
01 07:35 S 6 16.09 Fair CLR 26 24 89% 28 76.48 0.0
01 07:15 Calm 16.09 Fair CLR 25 24 94% 26 76.48 0.0
01 06:55 Calm 16.09 Fair CLR 23 23 100% 76.45 0.0
01 06:15 Calm 16.09 Fair CLR 23 23 100% 76.43 0.0
01 05:55 Calm 16.09 Fair CLR 23 23 100% 76.4 0.0
01 05:35 Calm 16.09 Fair CLR 23 22 94% 76.4 0.0
01 05:15 Calm 16.09 Fair CLR 23 23 100% 76.38 0.0
01 04:55 Calm 16.09 Fair CLR 23 23 100% 76.38 0.0
01 04:35 Calm 16.09 Fair CLR 22 22 100% 76.38 0.0
01 04:15 Calm 16.09 Fair CLR 22 22 100% 76.35 0.0
01 03:55 Calm 16.09 Fair CLR 22 22 100% 76.35 0.0
01 03:35 Calm 16.09 Fair CLR 23 23 100% 76.35 0.0
01 03:15 Calm 16.09 Fair CLR 23 23 100% 76.35 0.0
01 02:55 Calm 16.09 Fair CLR 23 23 100% 76.35 0.0
01 02:35 Calm 16.09 Fair CLR 23 23 100% 76.35 0.0
01 02:15 Calm 16.09 Fair CLR 23 23 100% 76.35 0.0
01 01:55 SE 6 16.09 Fair CLR 24 23 94% 23 76.33 0.0
01 01:35 Calm 16.09 Fair CLR 23 23 100% 76.35 0.0
01 01:15 Calm 16.09 Fair CLR 24 23 94% 23 76.35 0.0
01 00:55 Calm 16.09 Fair CLR 24 23 94% 23 76.35 0.0
01 00:35 Calm 16.09 Fair CLR 24 23 94% 23 76.35 0.0
01 00:15 Calm 16.09 Fair CLR 24 23 94% 23 76.35 0.0
31 23:55 Calm 16.09 Fair CLR 24 24 100% 23 76.35 0.0
31 23:35 SE 9 16.09 Fair CLR 25 24 94% 26 76.35 0.0
31 23:15 Calm 16.09 Fair CLR 24 24 100% 23 76.35 0.0
31 22:55 Calm 16.09 Fair CLR 24 24 100% 23 76.38 0.0
31 22:35 Calm 16.09 Fair CLR 24 24 100% 23 76.38 0.0
31 22:15 Calm 16.09 Fair CLR 24 24 100% 23 76.35 0.0
31 21:55 Calm 16.09 Fair CLR 25 24 94% 26 76.35 0.0
31 21:35 Calm 16.09 Fair CLR 25 24 94% 26 76.33 0.0
31 21:15 Calm 16.09 Fair CLR 25 24 94% 26 76.33 0.0
31 20:55 SE 6 16.09 Fair CLR 26 24 89% 28 76.3 0.0
31 20:35 SE 9 16.09 Fair CLR 27 24 84% 30 76.28 0.0
31 20:15 SE 7 16.09 Fair CLR 28 24 79% 32 76.28 0.0
31 19:55 SE 7 16.09 Fair CLR 28 24 79% 32 76.28 0.0
31 19:35 SE 7 16.09 Fair CLR 29 23 70% 33 76.28 0.0
31 19:15 SE 9 16.09 Fair CLR 29 23 70% 33 76.28 0.0
31 18:35 SE 6 16.09 Fair CLR 32 23 59% 37 76.3 0.0
31 18:15 SE 7 16.09 Fair CLR 32 22 55% 36 76.3 0.0
31 17:55 E 7 16.09 Fair CLR 33 22 52% 37 76.3 0.0
31 17:35 SE 9 16.09 Fair CLR 33 22 52% 37 76.33 0.0
31 17:15 SE 9 16.09 Fair CLR 33 22 52% 37 76.33 0.0
31 16:55 SE 7 16.09 Fair CLR 34 21 47% 37 76.33 0.0
31 16:35 Calm 16.09 Fair CLR 34 22 50% 38 76.35 0.0
31 16:15 Calm 16.09 Fair CLR 34 21 47% 37 76.35 0.0
31 15:55 SW 7 16.09 A Few Clouds FEW050 34 22 50% 38 76.35 0.0
31 15:35 S 7 16.09 Partly Cloudy SCT050 34 21 47% 37 76.35 0.0
31 15:15 Vrbl 7 16.09 Partly Cloudy SCT055 34 22 50% 38 76.38 0.0
31 14:55 SW 11 16.09 Fair CLR 34 22 50% 38 76.4 0.0
31 14:35 Calm 16.09 Fair CLR 33 22 52% 37 76.4 0.0
31 14:15 SW 7 16.09 A Few Clouds FEW050 33 23 56% 38 76.43 0.0
31 13:55 W 6 16.09 A Few Clouds FEW050 32 23 59% 37 76.43 0.0
31 13:35 S 9 16.09 A Few Clouds FEW046 33 23 56% 38 76.45 0.0
31 13:15 W 6 16.09 Partly Cloudy SCT045 SCT055 32 23 59% 37 76.48 0.0
31 12:55 SW 11 16.09 Partly Cloudy SCT046 33 23 56% 38 76.48 0.0
31 12:35 Vrbl 6 16.09 A Few Clouds FEW042 32 23 59% 37 76.5 0.0
31 12:15 W 9 16.09 Fair CLR 32 23 59% 37 76.5 0.0
31 11:55 SW 9 16.09 Fair CLR 32 23 59% 37 76.53 0.0
31 11:35 W 13 16.09 A Few Clouds FEW037 32 24 63% 38 76.53 0.0
31 11:15 SW 9 16.09 Fair CLR 32 24 63% 38 76.53 0.0
31 10:55 SW 11 16.09 Fair CLR 31 24 66% 37 76.53 0.0
31 10:35 SW 9 16.09 Fair CLR 31 24 66% 37 76.53 0.0
31 10:15 SW 11 16.09 Fair CLR 31 25 70% 38 76.53 0.0
31 09:55 SW 13 16.09 Fair CLR 30 24 70% 35 76.53 0.0
31 09:35 SW 11 16.09 Fair CLR 29 24 74% 34 76.5 0.0
31 09:15 SW 11 16.09 Fair CLR 29 24 74% 34 76.5 0.0
31 08:55 S 9 16.09 Fair CLR 28 24 79% 32 76.5 0.0
31 08:35 S 11 16.09 Fair CLR 27 24 84% 30 76.5 0.0
31 08:15 S 7 16.09 Fair CLR 26 24 89% 28 76.5 0.0
31 07:55 S 11 16.09 Fair CLR 26 24 89% 28 76.48 0.0
31 07:35 Calm 16.09 Fair CLR 25 24 94% 26 76.45 0.0
31 07:15 Calm 16.09 Fair CLR 24 23 94% 23 76.43 0.0
31 06:55 Calm 16.09 Fair CLR 23 23 100% 76.43 0.0
31 06:35 Calm 16.09 Fair CLR 22 22 100% 76.43 0.0
31 06:15 Calm 16.09 Fair CLR 22 22 100% 76.43 0.0
31 05:55 Calm 16.09 Fair CLR 22 22 100% 76.4 0.0
31 05:35 SE 7 16.09 Fair CLR 22 22 100% 76.38 0.0
31 05:15 Calm 16.09 Fair CLR 22 22 100% 76.38 0.0
31 04:55 Calm 16.09 Fair CLR 22 22 100% 76.38 0.0
31 04:35 Calm 16.09 Fair CLR 22 22 100% 76.35 0.0
31 04:15 Calm 16.09 Fair CLR 23 23 100% 76.35 0.0
31 03:55 S 9 16.09 Fair CLR 24 23 94% 23 76.35 0.0
31 03:35 S 7 16.09 Fair CLR 24 23 94% 23 76.33 0.0
31 03:15 S 9 16.09 Fair CLR 24 23 94% 23 76.33 0.0
31 02:55 S 9 16.09 Fair CLR 24 23 94% 23 76.33 0.0
31 02:35 S 7 16.09 Fair CLR 24 23 94% 23 76.33 0.0
31 02:15 S 9 16.09 Fair CLR 25 23 89% 26 76.35 0.0
31 01:55 S 9 16.09 Fair CLR 25 23 89% 26 76.35 0.0
31 01:35 S 11 16.09 Fair CLR 25 23 89% 26 76.33 0.0
31 01:15 S 11 16.09 Fair CLR 25 23 89% 26 76.35 0.0
31 00:55 S 11 16.09 Fair CLR 25 23 89% 26 76.33 0.0
31 00:35 S 7 16.09 Fair CLR 25 23 89% 26 76.35 0.0
31 00:15 S 11 16.09 Fair CLR 25 23 89% 26 76.35 0.0
30 23:55 S 9 16.09 Fair CLR 25 23 89% 26 76.35 0.0
30 23:35 S 7 16.09 Fair CLR 26 24 89% 28 76.35 0.0
30 23:15 S 9 16.09 Fair CLR 26 24 89% 28 76.35 0.0
30 22:55 SE 7 16.09 Fair CLR 26 24 89% 28 76.35 0.0
30 22:35 SE 9 16.09 Fair CLR 26 24 89% 28 76.35 0.0
30 22:15 SE 9 16.09 Fair CLR 26 24 89% 28 76.35 0.0
30 21:55 SE 7 16.09 Fair CLR 27 24 84% 30 76.33 0.0
30 21:35 SE 7 16.09 Fair CLR 27 24 84% 30 76.33 0.0
30 21:15 SE 7 16.09 Fair CLR 27 24 84% 30 76.33 0.0
30 20:55 SE 9 16.09 Fair CLR 27 25 89% 31 76.3 0.0
30 20:35 SE 9 16.09 Fair CLR 28 25 84% 33 76.3 0.0
30 20:15 E 7 16.09 Fair CLR 27 25 89% 31 76.28 0.0
30 19:55 SE 6 16.09 Fair CLR 28 24 79% 32 76.28 0.0
30 19:35 SE 9 16.09 Fair CLR 29 24 74% 34 76.28 0.0
30 19:15 SE 7 16.09 Fair CLR 29 24 74% 34 76.28 0.0
30 18:55 SE 7 16.09 Fair CLR 30 24 70% 35 76.28 0.0
30 18:35 SE 6 16.09 Fair CLR 31 24 66% 37 76.28 0.0
30 18:15 SE 6 16.09 Fair CLR 32 24 63% 38 76.28 0.0
30 17:55 SE 9 16.09 Fair CLR 32 23 59% 37 76.28 0.0
30 17:35 SE 9 16.09 Fair CLR 32 23 59% 37 76.28 0.0
30 17:15 E 9 16.09 A Few Clouds FEW050 FEW080 33 23 56% 38 76.25 0.0
30 16:55 SE 11 16.09 Fair CLR 33 23 56% 38 76.28 0.0
30 16:35 S 7 16.09 A Few Clouds FEW050 34 23 53% 39 76.28 0.0
30 16:15 Vrbl 6 16.09 A Few Clouds FEW050 FEW055 33 22 52% 37 76.3 0.0
30 15:55 S 7 16.09 A Few Clouds FEW050 FEW060 33 22 52% 37 76.3 0.0
30 15:35 S 13 16.09 A Few Clouds FEW060 33 21 49% 36 76.33 0.0
30 15:15 SW 7 16.09 Fair CLR 34 22 50% 38 76.33 0.0
30 14:55 S 11 G 22 16.09 Fair CLR 33 21 49% 36 76.35 0.0
30 14:35 SW 9 G 24 16.09 Fair CLR 33 22 52% 37 76.35 0.0
30 14:15 S 13 16.09 Fair CLR 33 22 52% 37 76.38 0.0
30 13:55 S 15 16.09 A Few Clouds FEW044 FEW050 FEW095 33 22 52% 37 76.4 0.0
30 13:35 Vrbl 7 16.09 Mostly Cloudy BKN045 BKN055 BKN095 32 23 59% 37 76.43 0.0
30 13:15 SW 11 16.09 Partly Cloudy FEW042 SCT050 32 23 59% 37 76.43 0.0
30 12:55 SE 13 16.09 Partly Cloudy SCT042 SCT050 SCT070 32 23 59% 37 76.45 0.0
30 12:35 SW 9 16.09 Partly Cloudy SCT040 SCT046 SCT050 32 23 59% 37 76.45 0.0
30 12:15 Vrbl 9 16.09 Partly Cloudy SCT039 SCT045 32 23 59% 37 76.45 0.0
30 11:55 S 7 16.09 Fair CLR 32 23 59% 37 76.45 0.0
30 11:35 Vrbl 7 16.09 Fair CLR 31 23 62% 35 76.45 0.0
30 11:15 SE 9 16.09 Fair CLR 31 23 62% 35 76.48 0.0
30 10:55 S 11 16.09 Fair CLR 31 23 62% 35 76.48 0.0
30 10:35 Vrbl 7 16.09 Fair CLR 30 23 66% 34 76.48 0.0
30 10:15 S 7 16.09 Fair CLR 29 24 74% 34 76.45 0.0
30 09:55 S 13 16.09 Fair CLR 29 24 74% 34 76.45 0.0
30 09:35 S 13 16.09 Fair CLR 28 24 79% 32 76.45 0.0
30 09:15 S 13 16.09 Fair CLR 28 24 79% 32 76.48 0.0
30 08:55 S 11 16.09 Fair CLR 27 24 84% 30 76.48 0.0
30 08:35 S 7 16.09 Fair CLR 26 23 84% 28 76.48 0.0
30 08:15 SE 6 16.09 Fair CLR 25 23 89% 26 76.48 0.0
30 07:55 SE 7 16.09 Fair CLR 24 22 89% 24 76.48 0.0
30 07:35 SE 9 16.09 Fair CLR 23 22 94% 76.48 0.0
30 07:15 Calm 16.09 Fair CLR 22 22 100% 76.45 0.0
30 06:55 Calm 16.09 Fair CLR 21 21 100% 76.43 0.0
30 06:35 Calm 16.09 Fair CLR 20 20 100% 76.43 0.0
30 06:15 Calm 16.09 Fair CLR 20 20 100% 76.4 0.0
30 05:55 Calm 16.09 A Few Clouds FEW055 20 20 100% 76.38 0.0
30 05:35 Calm 16.09 Fair CLR 21 20 94% 76.38 0.0
30 05:15 SE 7 16.09 Fair CLR 20 20 100% 76.38 0.0
30 04:55 Calm 16.09 Fair CLR 20 20 100% 76.38 0.0
30 04:35 Calm 16.09 Fair CLR 21 20 94% 76.35 0.0
30 04:15 Calm 16.09 Fair CLR 20 20 100% 76.38 0.0
30 03:55 Calm 16.09 Fair CLR 19 19 100% 76.38 0.0
30 03:35 Calm 16.09 Fair CLR 20 20 100% 76.38 0.0
30 03:15 SE 9 16.09 Fair CLR 21 20 94% 76.38 0.0
30 02:55 SE 7 16.09 Fair CLR 21 20 94% 76.38 0.0
30 02:35 SE 7 16.09 Fair CLR 20 20 100% 76.38 0.0
30 02:15 Calm 16.09 Fair CLR 21 20 94% 76.4 0.0
30 01:55 E 9 16.09 Fair CLR 22 20 88% 76.4 0.0
30 01:35 E 9 16.09 Fair CLR 22 20 88% 76.4 0.0
30 01:15 SE 11 16.09 Fair CLR 23 20 83% 76.4 0.0
30 00:55 SE 9 16.09 Fair CLR 23 21 89% 76.4 0.0
30 00:35 SE 9 16.09 Fair CLR 23 20 83% 76.4 0.0
30 00:15 E 9 16.09 Fair CLR 23 20 83% 76.4 0.0
29 23:55 E 9 16.09 Fair CLR 24 20 78% 24 76.4 0.0
29 23:35 E 9 16.09 Fair CLR 23 21 89% 76.4 0.0
29 23:15 Calm 16.09 Fair CLR 20 20 100% 76.38 0.0
29 22:55 Calm 16.09 Fair CLR 21 20 94% 76.38 0.0
29 22:35 Calm 16.09 Fair CLR 21 20 94% 76.35 0.0
29 22:15 Calm 16.09 Fair CLR 21 20 94% 76.38 0.0
29 21:55 Calm 16.09 Fair CLR 21 20 94% 76.38 0.0
Date Time (cdt) Wind (kph) Vis. (km) Weather Sky Cond. Air Dwpt Max. Min. Relative Humidity Wind Chill (°C) Heat Index (°C) altimeter (cm) sea level (mb) 1 hr 3 hr 6 hr
6 hour
Temperature (ºC) Pressure Precipitation (cm)